Pagrindinis puslapis
METAR-TAF:

METAR-TAF

Oro uostai :

Juveskiulė, Suomija

platuma: 62-24N, ilguma: 025-41E, Aukštis: 141 m

Dabartinis oras

Ataskaita buvo paskelbta 41 minutes, ne 23:20 UTC
Vėjas 2 kt nuo kintamojo kryptimis
Temperatūra 19°C
Drėgmė 88%
Slėgis 1015 hPa
Matomumas 10 km arba daugiau
lietus

METAR: EFJY 022320Z AUTO VRB02KT 9999 SHRA //////CB 19/17 Q1015

Laikas: 03:01 (00:01 UTC)

Prognozė

Ataskaita buvo paskelbta 3 valandos ir 34 minutes, ne 20:27 UTC
Prognozė galioja nuo 02 metu 21 UTC su 03 metu 21 UTC
Vėjas 5 kt iš Vakarų
Matomumas 10 km arba daugiau
nėra debesų žemiau 1500 m ir nėra kamuolinių lietaus debesų
Laikinai
nuo 02 metu 21 UTC su 03 metu 06 UTC
Mažai debesys ne aukštis 3000 ft, Liūtiniai kamuoliniai debesys.
Tikimybė 30%
nuo 02 metu 21 UTC su 03 metu 06 UTC
Matomumas: 6000 m
perkūnija, lietus

TAF: EFJY 022027Z 0221/0321 26005KT CAVOK TEMPO 0221/0306 FEW030CB PROB30 0221/0306 6000 TSRA

Orai ataskaitas ir orų prognozės (METAR, TAF).

turimą stotys yra geltonos ir raudonos taškus žemėlapyje.

Perkelti pele per norėdami pamatyti stoties vardą.

Tada spustelėkite, norėdami matyti oro stebėjimo ir prognozės.

Norėdami pakeisti žemėlapį: spustelėkite ant žalios mygtukų su juodo kryžiaus žemyn,; žalią mygtuką su brūkšneliu, jei norite nutolinti; arba žalių rodyklių gretimoms žemėlapius.


METAR-TAF: